createdAt,value
2022-10-28T00:01:21.087Z,2.97
2022-10-28T00:03:52.878Z,2.67
2022-10-28T00:06:21.544Z,2.65
2022-10-28T00:08:48.383Z,2.42
2022-10-28T00:11:23.209Z,2.67
2022-10-28T00:13:50.906Z,3.10
2022-10-28T00:16:19.658Z,4.07
2022-10-28T00:18:46.587Z,2.20
2022-10-28T00:21:15.155Z,3.92
2022-10-28T00:23:41.994Z,2.50
2022-10-28T00:26:13.813Z,4.72
2022-10-28T00:28:42.181Z,3.92
2022-10-28T00:31:09.902Z,3.70
2022-10-28T00:33:37.426Z,3.05
2022-10-28T00:36:28.678Z,1.65
2022-10-28T00:38:55.988Z,10.25
2022-10-28T00:41:25.085Z,2.38
2022-10-28T00:43:53.696Z,2.15
2022-10-28T00:46:22.931Z,3.25
2022-10-28T00:48:52.267Z,3.97
2022-10-28T00:51:19.531Z,3.05
2022-10-28T00:53:48.188Z,6.53
2022-10-28T00:56:15.016Z,3.40
2022-10-28T00:58:41.789Z,2.80
2022-10-28T01:01:08.547Z,4.45
2022-10-28T01:03:36.813Z,4.20
2022-10-28T01:06:03.661Z,3.83
2022-10-28T01:08:30.444Z,4.22
2022-10-28T01:11:15.578Z,3.67
2022-10-28T01:14:03.503Z,3.95
2022-10-28T01:16:39.917Z,2.63
2022-10-28T01:19:21.696Z,3.13
2022-10-28T01:22:15.708Z,2.75
2022-10-28T01:25:13.267Z,4.78
2022-10-28T01:27:51.072Z,2.13
2022-10-28T01:30:22.609Z,4.88
2022-10-28T01:32:55.691Z,2.80
2022-10-28T01:35:57.942Z,2.17
2022-10-28T01:38:48.723Z,4.93
2022-10-28T01:41:20.448Z,3.42
2022-10-28T01:44:07.531Z,2.85
2022-10-28T01:46:38.700Z,4.22
2022-10-28T01:49:19.351Z,2.85
2022-10-28T01:51:53.649Z,2.20
2022-10-28T01:54:22.359Z,4.18
2022-10-28T01:56:49.158Z,3.40
2022-10-28T01:59:25.824Z,3.15
2022-10-28T02:01:52.732Z,2.40
2022-10-28T02:04:19.571Z,2.70
2022-10-28T02:06:47.715Z,4.32
2022-10-28T02:09:32.370Z,2.53
2022-10-28T02:12:11.503Z,3.88
2022-10-28T02:15:04.431Z,3.70
2022-10-28T02:17:49.059Z,3.40
2022-10-28T02:20:21.396Z,5.25
2022-10-28T02:23:20.802Z,3.00
2022-10-28T02:25:53.622Z,5.20
2022-10-28T02:28:24.837Z,3.35
2022-10-28T02:31:00.256Z,3.38
2022-10-28T02:33:29.935Z,2.28
2022-10-28T02:35:59.676Z,2.83
2022-10-28T02:38:40.633Z,2.53
2022-10-28T02:41:13.055Z,2.97
2022-10-28T02:43:39.767Z,2.42
2022-10-28T02:46:06.509Z,2.47
2022-10-28T02:48:51.351Z,2.92
2022-10-28T02:51:41.203Z,3.65
2022-10-28T02:54:10.954Z,2.60
2022-10-28T02:56:55.780Z,3.33
2022-10-28T02:59:24.186Z,3.30
2022-10-28T03:01:50.988Z,3.15
2022-10-28T03:04:18.261Z,4.22
2022-10-28T03:06:44.963Z,2.75
2022-10-28T03:09:11.688Z,4.53
2022-10-28T03:11:38.425Z,2.72
2022-10-28T03:14:05.153Z,2.65
2022-10-28T03:16:31.955Z,2.30
2022-10-28T03:18:58.768Z,2.05
2022-10-28T03:21:25.528Z,3.13
2022-10-28T03:23:52.228Z,2.20
2022-10-28T03:26:18.958Z,2.55
2022-10-28T03:28:45.816Z,3.47
2022-10-28T03:31:12.560Z,2.70
2022-10-28T03:33:39.268Z,2.28
2022-10-28T03:36:06.289Z,3.25
2022-10-28T03:38:33.009Z,4.38
2022-10-28T03:40:59.741Z,4.95
2022-10-28T03:43:26.439Z,2.75
2022-10-28T03:45:53.158Z,2.80
2022-10-28T03:48:20.101Z,2.40
2022-10-28T03:50:46.857Z,2.70
2022-10-28T03:53:13.583Z,1.80
2022-10-28T03:55:40.363Z,3.03
2022-10-28T03:58:07.097Z,2.08
2022-10-28T04:00:33.862Z,2.40
2022-10-28T04:03:00.591Z,2.97
2022-10-28T04:05:27.340Z,2.35
2022-10-28T04:07:54.198Z,2.22
2022-10-28T04:10:21.329Z,4.15
2022-10-28T04:12:48.056Z,3.05
2022-10-28T04:15:14.825Z,4.20
2022-10-28T04:17:41.543Z,4.00
2022-10-28T04:20:08.807Z,3.13
2022-10-28T04:22:35.549Z,4.00
2022-10-28T04:25:02.326Z,4.05
2022-10-28T04:27:29.123Z,2.63
2022-10-28T04:29:55.855Z,2.47
2022-10-28T04:32:22.628Z,3.28
2022-10-28T04:34:49.323Z,1.73
2022-10-28T04:40:00.266Z,3.22
2022-10-28T04:42:27.005Z,1.98
2022-10-28T04:44:54.399Z,2.53
2022-10-28T04:47:21.102Z,3.05
2022-10-28T04:49:47.804Z,2.30
2022-10-28T04:52:15.816Z,4.43
2022-10-28T04:54:42.775Z,2.28
2022-10-28T04:57:09.489Z,2.88
2022-10-28T04:59:37.398Z,2.90
2022-10-28T05:02:04.239Z,2.50
2022-10-28T05:04:31.095Z,5.30
2022-10-28T05:06:57.826Z,2.67
2022-10-28T05:09:25.411Z,5.57
2022-10-28T05:11:55.299Z,5.45
2022-10-28T05:14:22.452Z,4.38
2022-10-28T05:16:49.739Z,7.93
2022-10-28T05:19:16.888Z,4.38
2022-10-28T05:21:43.924Z,4.55
2022-10-28T05:24:11.048Z,4.05
2022-10-28T05:26:38.010Z,7.30
2022-10-28T05:29:05.060Z,4.93
2022-10-28T05:31:32.008Z,3.67
2022-10-28T05:33:59.469Z,2.95
2022-10-28T05:36:27.894Z,5.45
2022-10-28T05:38:54.930Z,7.35
2022-10-28T05:41:23.341Z,6.75
2022-10-28T05:43:51.687Z,5.72
2022-10-28T05:46:18.587Z,3.00
2022-10-28T05:48:45.585Z,6.43
2022-10-28T05:51:12.281Z,5.90
2022-10-28T05:53:39.103Z,6.32
2022-10-28T05:56:05.985Z,7.22
2022-10-28T05:58:32.697Z,4.85
2022-10-28T06:00:59.782Z,5.38
2022-10-28T06:03:30.959Z,6.47
2022-10-28T06:05:59.503Z,6.07
2022-10-28T06:08:27.497Z,6.45
2022-10-28T06:10:56.781Z,5.55
2022-10-28T06:13:23.552Z,4.05
2022-10-28T06:15:55.017Z,6.05
2022-10-28T06:18:22.303Z,3.75
2022-10-28T06:20:58.458Z,7.28
2022-10-28T06:23:27.561Z,10.45
2022-10-28T06:26:01.120Z,4.55
2022-10-28T06:28:27.918Z,4.47
2022-10-28T06:31:01.189Z,5.60
2022-10-28T06:33:27.920Z,5.65
2022-10-28T06:35:58.279Z,5.57
2022-10-28T06:38:27.139Z,6.10
2022-10-28T06:41:00.338Z,6.47
2022-10-28T06:43:27.798Z,7.80
2022-10-28T06:45:57.294Z,6.03
2022-10-28T06:48:25.888Z,3.65
2022-10-28T06:50:56.589Z,5.72
2022-10-28T06:53:27.134Z,3.63
2022-10-28T06:55:59.161Z,6.32
2022-10-28T06:58:27.077Z,5.88
2022-10-28T07:00:54.107Z,3.50
2022-10-28T07:03:20.969Z,4.75
2022-10-28T07:05:49.197Z,2.80
2022-10-28T07:08:16.868Z,3.58
2022-10-28T07:10:43.571Z,5.30
2022-10-28T07:13:10.309Z,3.72
2022-10-28T07:15:37.022Z,4.00
2022-10-28T07:18:03.857Z,3.42
2022-10-28T07:20:32.946Z,3.90
2022-10-28T07:23:00.897Z,3.97
2022-10-28T07:25:30.094Z,5.20
2022-10-28T07:27:59.233Z,3.78
2022-10-28T07:30:26.995Z,5.00
2022-10-28T07:32:54.017Z,5.18
2022-10-28T07:35:21.122Z,3.75
2022-10-28T07:37:47.906Z,4.30
2022-10-28T07:40:14.711Z,3.28
2022-10-28T07:42:41.483Z,2.78
2022-10-28T07:45:08.491Z,3.10
2022-10-28T07:47:35.255Z,4.07
2022-10-28T07:50:02.098Z,3.65
2022-10-28T07:52:28.919Z,2.35
2022-10-28T07:54:57.333Z,2.78
2022-10-28T07:57:24.107Z,4.55
2022-10-28T07:59:50.813Z,3.47
2022-10-28T08:02:24.329Z,3.22
2022-10-28T08:04:51.403Z,4.82
2022-10-28T08:07:18.324Z,6.40
2022-10-28T08:09:45.054Z,3.40
2022-10-28T08:12:13.197Z,4.10
2022-10-28T08:14:39.956Z,5.03
2022-10-28T08:17:06.793Z,7.07
2022-10-28T08:19:33.510Z,4.47
2022-10-28T08:22:00.340Z,2.67
2022-10-28T08:24:28.177Z,3.65
2022-10-28T08:26:54.993Z,6.20
2022-10-28T08:29:24.157Z,2.92
2022-10-28T08:31:53.192Z,3.47
2022-10-28T08:36:47.612Z,3.22
2022-10-28T08:39:14.390Z,3.22
2022-10-28T08:41:43.958Z,3.35
2022-10-28T08:44:41.272Z,5.20
2022-10-28T08:47:40.331Z,3.15
2022-10-28T08:50:15.520Z,3.35
2022-10-28T08:52:56.244Z,4.90
2022-10-28T08:55:26.801Z,5.72
2022-10-28T08:58:07.521Z,4.93
2022-10-28T09:00:34.285Z,7.75
2022-10-28T09:03:22.455Z,6.32
2022-10-28T09:05:54.184Z,6.60
2022-10-28T09:08:22.685Z,6.57
2022-10-28T09:11:07.751Z,6.88
2022-10-28T09:13:52.454Z,7.65
2022-10-28T09:16:22.058Z,8.07
2022-10-28T09:18:53.357Z,10.73
2022-10-28T09:21:51.290Z,16.10
2022-10-28T09:24:20.622Z,10.23
2022-10-28T09:27:22.810Z,11.77
2022-10-28T09:29:59.540Z,14.40
2022-10-28T09:32:46.496Z,16.55
2022-10-28T09:35:15.390Z,13.20
2022-10-28T09:37:50.949Z,13.65
2022-10-28T09:40:28.072Z,13.93
2022-10-28T09:43:31.733Z,17.13
2022-10-28T09:46:20.873Z,12.57
2022-10-28T09:48:48.708Z,17.48
2022-10-28T09:51:24.954Z,13.50
2022-10-28T09:54:00.826Z,14.13
2022-10-28T09:56:29.171Z,16.02
2022-10-28T09:59:00.895Z,14.98
2022-10-28T10:01:29.277Z,12.95
2022-10-28T10:03:56.942Z,16.35
2022-10-28T10:06:30.487Z,15.18
2022-10-28T10:08:57.387Z,15.50
2022-10-28T10:11:39.829Z,11.90
2022-10-28T10:14:09.597Z,17.80
2022-10-28T10:16:57.361Z,10.55
2022-10-28T10:19:24.214Z,9.95
2022-10-28T10:21:52.828Z,13.48
2022-10-28T10:24:30.891Z,16.95
2022-10-28T10:27:10.864Z,9.32
2022-10-28T10:29:37.825Z,12.57
2022-10-28T10:32:07.126Z,15.43
2022-10-28T10:34:33.960Z,13.80
2022-10-28T10:37:01.542Z,9.68
2022-10-28T10:39:33.185Z,13.07
2022-10-28T10:42:00.319Z,11.45
2022-10-28T10:44:36.298Z,12.95
2022-10-28T10:47:06.086Z,11.85
2022-10-28T10:49:34.387Z,12.32
2022-10-28T10:52:07.615Z,12.93
2022-10-28T10:54:34.642Z,12.68
2022-10-28T10:57:18.344Z,15.93
2022-10-28T10:59:49.731Z,16.40
2022-10-28T11:02:27.039Z,13.05
2022-10-28T11:05:00.719Z,11.85
2022-10-28T11:07:28.343Z,10.07
2022-10-28T11:09:55.292Z,12.73
2022-10-28T11:12:26.181Z,9.85
2022-10-28T11:14:58.143Z,15.50
2022-10-28T11:20:02.083Z,11.85
2022-10-28T11:22:32.068Z,9.80
2022-10-28T11:25:01.816Z,14.63
2022-10-28T11:27:57.707Z,14.85
2022-10-28T11:31:04.393Z,13.57
2022-10-28T11:33:43.354Z,8.40
2022-10-28T11:36:42.589Z,15.55
2022-10-28T11:39:24.428Z,15.68
2022-10-28T11:42:14.456Z,16.95
2022-10-28T11:45:08.876Z,13.23
2022-10-28T11:48:14.828Z,17.80
2022-10-28T11:50:53.696Z,12.93
2022-10-28T11:53:45.133Z,10.80
2022-10-28T11:56:21.346Z,11.68
2022-10-28T11:58:51.386Z,10.25
2022-10-28T12:01:50.649Z,8.55
2022-10-28T12:04:36.436Z,14.50
2022-10-28T12:07:27.359Z,11.02
2022-10-28T12:10:03.633Z,8.63
2022-10-28T12:12:51.327Z,11.32
2022-10-28T12:15:46.497Z,13.73
2022-10-28T12:18:22.215Z,13.88
2022-10-28T12:21:04.013Z,13.93
2022-10-28T12:23:34.200Z,14.60
2022-10-28T12:26:01.992Z,14.85
2022-10-28T12:28:37.788Z,13.40
2022-10-28T12:31:16.255Z,11.18
2022-10-28T12:33:46.043Z,10.60
2022-10-28T12:36:28.357Z,14.63
2022-10-28T12:39:05.592Z,13.73
2022-10-28T12:41:52.404Z,10.13
2022-10-28T12:44:22.766Z,11.73
2022-10-28T12:47:13.935Z,12.15
2022-10-28T12:49:43.839Z,11.98
2022-10-28T12:52:30.545Z,11.40
2022-10-28T12:55:18.993Z,12.35
2022-10-28T12:57:49.476Z,10.82
2022-10-28T13:00:21.331Z,15.50
2022-10-28T13:03:04.420Z,10.98
2022-10-28T13:05:42.193Z,15.27
2022-10-28T13:08:30.560Z,11.93
2022-10-28T13:11:05.863Z,14.18
2022-10-28T13:13:52.402Z,12.52
2022-10-28T13:16:22.317Z,14.15
2022-10-28T13:19:15.065Z,11.32
2022-10-28T13:21:44.419Z,11.75
2022-10-28T13:24:38.479Z,12.32
2022-10-28T13:27:07.915Z,12.00
2022-10-28T13:29:35.028Z,14.30
2022-10-28T13:32:04.645Z,16.10
2022-10-28T13:34:38.861Z,12.40
2022-10-28T13:37:06.253Z,9.52
2022-10-28T13:39:42.353Z,12.35
2022-10-28T13:42:14.936Z,10.82
2022-10-28T13:44:55.575Z,11.40
2022-10-28T13:47:24.745Z,7.32
2022-10-28T13:50:14.669Z,19.20
2022-10-28T13:52:45.139Z,13.40
2022-10-28T13:55:20.570Z,15.85
2022-10-28T13:57:48.465Z,14.05
2022-10-28T14:00:18.227Z,21.00
2022-10-28T14:03:01.528Z,16.00
2022-10-28T14:05:38.487Z,14.98
2022-10-28T14:08:06.961Z,12.52
2022-10-28T14:10:37.132Z,12.98
2022-10-28T14:13:18.238Z,10.02
2022-10-28T14:15:45.342Z,11.57
2022-10-28T14:18:41.616Z,10.50
2022-10-28T14:21:02.792Z,12.70
2022-10-28T14:23:32.893Z,13.65
2022-10-28T14:26:04.459Z,10.32
2022-10-28T14:28:33.555Z,12.07
2022-10-28T14:31:12.758Z,12.90
2022-10-28T14:33:42.972Z,12.15
2022-10-28T14:36:19.670Z,13.30
2022-10-28T14:39:07.141Z,14.40
2022-10-28T14:42:06.119Z,10.27
2022-10-28T14:44:53.655Z,11.73
2022-10-28T14:47:31.239Z,9.88
2022-10-28T14:50:04.708Z,13.80
2022-10-28T14:52:32.037Z,11.50
2022-10-28T14:55:00.933Z,13.32
2022-10-28T14:57:34.135Z,16.20
2022-10-28T15:00:05.244Z,19.60
2022-10-28T15:02:33.330Z,9.00
2022-10-28T15:05:04.985Z,15.07
2022-10-28T15:07:38.111Z,14.30
2022-10-28T15:10:15.550Z,15.75
2022-10-28T15:12:43.935Z,13.65
2022-10-28T15:15:27.395Z,14.00
2022-10-28T15:17:54.205Z,9.35
2022-10-28T15:20:20.904Z,15.43
2022-10-28T15:22:47.700Z,16.67
2022-10-28T15:25:15.483Z,13.90
2022-10-28T15:27:44.281Z,20.48
2022-10-28T15:30:15.785Z,14.98
2022-10-28T15:32:42.567Z,15.02
2022-10-28T15:35:30.502Z,12.00
2022-10-28T15:37:59.443Z,16.25
2022-10-28T15:40:33.942Z,12.10
2022-10-28T15:43:07.138Z,9.85
2022-10-28T15:45:39.638Z,10.65
2022-10-28T15:48:12.406Z,15.65
2022-10-28T15:50:39.151Z,12.00
2022-10-28T15:53:11.649Z,9.95
2022-10-28T15:58:40.296Z,13.27
2022-10-28T16:01:30.816Z,12.07
2022-10-28T16:03:57.796Z,11.63
2022-10-28T16:06:29.426Z,15.25
2022-10-28T16:09:18.500Z,8.60
2022-10-28T16:11:52.552Z,15.18
2022-10-28T16:14:23.846Z,13.43
2022-10-28T16:16:50.561Z,10.68
2022-10-28T16:19:28.722Z,16.75
2022-10-28T16:21:55.628Z,8.90
2022-10-28T16:24:22.687Z,10.50
2022-10-28T16:26:49.415Z,14.75
2022-10-28T16:29:16.133Z,14.73
2022-10-28T16:31:50.324Z,14.15
2022-10-28T16:34:17.058Z,11.45
2022-10-28T16:36:43.782Z,11.23
2022-10-28T16:39:13.690Z,17.38
2022-10-28T16:41:40.960Z,16.42
2022-10-28T16:44:17.743Z,13.20
2022-10-28T16:46:44.524Z,18.00
2022-10-28T16:49:11.622Z,13.82
2022-10-28T16:51:38.883Z,17.55
2022-10-28T16:54:05.633Z,13.27
2022-10-28T16:56:33.664Z,13.25
2022-10-28T16:59:00.416Z,11.90
2022-10-28T17:01:27.220Z,12.15
2022-10-28T17:03:54.074Z,18.40
2022-10-28T17:06:20.836Z,16.45
2022-10-28T17:09:02.327Z,9.15
2022-10-28T17:13:58.014Z,12.65
2022-10-28T17:16:25.427Z,11.70
2022-10-28T17:18:52.172Z,15.32
2022-10-28T17:21:18.884Z,10.40
2022-10-28T17:23:45.604Z,14.30
2022-10-28T17:26:12.330Z,13.07
2022-10-28T17:28:39.093Z,10.15
2022-10-28T17:31:07.061Z,9.75
2022-10-28T17:33:34.988Z,13.25
2022-10-28T17:36:05.989Z,10.63
2022-10-28T17:38:34.358Z,12.75
2022-10-28T17:41:01.076Z,8.30
2022-10-28T17:43:28.176Z,8.35
2022-10-28T17:46:06.053Z,10.55
2022-10-28T17:48:33.426Z,6.63
2022-10-28T17:51:00.753Z,10.32
2022-10-28T17:53:27.469Z,9.48
2022-10-28T17:56:01.446Z,12.30
2022-10-28T17:58:28.465Z,13.40
2022-10-28T18:01:05.071Z,12.80
2022-10-28T18:03:38.554Z,10.27
2022-10-28T18:06:07.295Z,11.02
2022-10-28T18:08:38.245Z,15.40
2022-10-28T18:11:06.801Z,13.60
2022-10-28T18:13:36.298Z,11.68
2022-10-28T18:16:10.317Z,13.48
2022-10-28T18:18:41.148Z,13.25
2022-10-28T18:21:10.561Z,11.70
2022-10-28T18:23:37.487Z,12.55
2022-10-28T18:26:06.942Z,10.27
2022-10-28T18:28:36.127Z,7.07
2022-10-28T18:31:11.694Z,8.85
2022-10-28T18:33:38.588Z,10.43
2022-10-28T18:36:07.433Z,11.77
2022-10-28T18:38:34.207Z,9.00
2022-10-28T18:41:01.020Z,12.02
2022-10-28T18:43:28.046Z,7.70
2022-10-28T18:45:54.830Z,8.93
2022-10-28T18:48:21.634Z,4.95
2022-10-28T18:50:56.434Z,10.43
2022-10-28T18:53:23.228Z,5.90
2022-10-28T18:55:50.094Z,7.05
2022-10-28T18:58:17.286Z,5.65
2022-10-28T19:00:44.040Z,7.03
2022-10-28T19:03:19.434Z,7.45
2022-10-28T19:05:46.327Z,11.18
2022-10-28T19:08:13.088Z,6.45
2022-10-28T19:10:39.936Z,9.38
2022-10-28T19:13:08.086Z,5.38
2022-10-28T19:15:40.071Z,7.30
2022-10-28T19:18:08.138Z,8.35
2022-10-28T19:20:34.889Z,5.40
2022-10-28T19:23:01.954Z,11.55
2022-10-28T19:25:28.758Z,6.68
2022-10-28T19:27:55.476Z,5.85
2022-10-28T19:30:22.334Z,6.35
2022-10-28T19:32:49.082Z,6.40
2022-10-28T19:35:15.895Z,9.85
2022-10-28T19:37:42.606Z,8.77
2022-10-28T19:40:09.784Z,9.02
2022-10-28T19:42:39.007Z,7.40
2022-10-28T19:45:07.815Z,10.98
2022-10-28T19:47:34.518Z,4.70
2022-10-28T19:50:01.316Z,8.68
2022-10-28T19:52:28.020Z,5.53
2022-10-28T19:54:54.760Z,5.30
2022-10-28T19:57:21.470Z,5.05
2022-10-28T19:59:48.181Z,7.85
2022-10-28T20:02:15.105Z,6.38
2022-10-28T20:04:41.947Z,4.47
2022-10-28T20:07:09.031Z,5.47
2022-10-28T20:09:36.100Z,7.78
2022-10-28T20:12:03.924Z,5.20
2022-10-28T20:14:31.748Z,6.10
2022-10-28T20:17:04.007Z,8.68
2022-10-28T20:19:33.857Z,3.63
2022-10-28T20:22:00.643Z,3.60
2022-10-28T20:24:27.475Z,3.17
2022-10-28T20:26:54.240Z,8.45
2022-10-28T20:29:21.037Z,6.00
2022-10-28T20:31:47.814Z,6.68
2022-10-28T20:34:14.531Z,6.53
2022-10-28T20:36:44.025Z,4.55
2022-10-28T20:39:17.605Z,6.05
2022-10-28T20:41:45.817Z,4.40
2022-10-28T20:44:13.030Z,6.80
2022-10-28T20:46:41.078Z,5.97
2022-10-28T20:49:09.953Z,4.55
2022-10-28T20:51:37.050Z,6.82
2022-10-28T20:54:04.159Z,5.88
2022-10-28T20:56:33.300Z,6.72
2022-10-28T20:59:00.058Z,4.70
2022-10-28T21:01:29.083Z,5.10
2022-10-28T21:03:57.425Z,7.63
2022-10-28T21:06:24.318Z,5.25
2022-10-28T21:08:51.165Z,4.43
2022-10-28T21:11:18.065Z,4.55
2022-10-28T21:13:46.710Z,4.40
2022-10-28T21:16:13.495Z,3.63
2022-10-28T21:18:41.167Z,3.53
2022-10-28T21:21:08.081Z,3.85
2022-10-28T21:23:34.812Z,4.43
2022-10-28T21:26:03.208Z,3.67
2022-10-28T21:28:30.301Z,3.53
2022-10-28T21:31:01.327Z,5.00
2022-10-28T21:33:28.383Z,3.75
2022-10-28T21:35:59.529Z,5.05
2022-10-28T21:38:26.742Z,4.85
2022-10-28T21:41:09.529Z,3.63
2022-10-28T21:43:37.187Z,3.15
2022-10-28T21:46:04.497Z,3.67
2022-10-28T21:48:31.646Z,3.35
2022-10-28T21:50:59.905Z,4.15
2022-10-28T21:53:27.026Z,3.08
2022-10-28T21:55:56.671Z,3.30
2022-10-28T21:58:23.987Z,3.97
2022-10-28T22:00:50.700Z,5.43
2022-10-28T22:03:17.404Z,4.93
2022-10-28T22:05:50.684Z,7.38
2022-10-28T22:08:17.887Z,6.55
2022-10-28T22:10:45.731Z,5.03
2022-10-28T22:13:12.719Z,4.95
2022-10-28T22:15:40.102Z,6.30
2022-10-28T22:18:06.832Z,4.07
2022-10-28T22:20:34.007Z,5.00
2022-10-28T22:23:01.301Z,3.35
2022-10-28T22:25:28.068Z,3.08
2022-10-28T22:27:54.802Z,5.53
2022-10-28T22:30:21.531Z,3.08
2022-10-28T22:32:48.259Z,2.95
2022-10-28T22:35:16.721Z,5.32
2022-10-28T22:37:43.495Z,3.42
2022-10-28T22:40:10.506Z,3.38
2022-10-28T22:42:37.211Z,4.43
2022-10-28T22:45:04.130Z,3.80
2022-10-28T22:47:30.821Z,1.92
2022-10-28T22:49:57.542Z,3.53
2022-10-28T22:52:24.258Z,4.93
2022-10-28T22:54:50.985Z,3.33
2022-10-28T22:57:18.124Z,3.00
2022-10-28T22:59:44.829Z,3.67
2022-10-28T23:02:11.641Z,2.47
2022-10-28T23:04:38.514Z,3.55
2022-10-28T23:07:05.252Z,3.90
2022-10-28T23:09:31.944Z,3.13
2022-10-28T23:11:58.653Z,4.07
2022-10-28T23:14:25.373Z,3.75
2022-10-28T23:16:52.082Z,7.22
2022-10-28T23:19:18.917Z,4.88
2022-10-28T23:21:46.457Z,7.38
2022-10-28T23:24:13.162Z,3.75
2022-10-28T23:26:39.877Z,4.22
2022-10-28T23:29:06.597Z,5.95
2022-10-28T23:31:33.297Z,3.50
2022-10-28T23:34:00.057Z,7.43
2022-10-28T23:36:26.838Z,4.25
2022-10-28T23:38:55.657Z,2.80
2022-10-28T23:41:22.436Z,4.32
2022-10-28T23:43:50.586Z,4.38
2022-10-28T23:46:18.785Z,3.22
2022-10-28T23:48:45.536Z,3.17
2022-10-28T23:51:12.344Z,4.07
2022-10-28T23:53:39.189Z,3.50
2022-10-28T23:56:06.455Z,3.45
2022-10-28T23:58:33.163Z,4.28
